createdAt,value
2018-12-14T00:00:32.177Z,11.53
2018-12-14T00:03:02.560Z,13.23
2018-12-14T00:05:32.319Z,13.87
2018-12-14T00:08:03.271Z,12.83
2018-12-14T00:10:33.782Z,14.20
2018-12-14T00:13:05.945Z,13.20
2018-12-14T00:15:35.217Z,14.43
2018-12-14T00:18:04.918Z,13.93
2018-12-14T00:20:34.830Z,13.90
2018-12-14T00:23:04.357Z,13.63
2018-12-14T00:25:33.603Z,13.00
2018-12-14T00:28:03.716Z,12.13
2018-12-14T00:30:33.797Z,14.00
2018-12-14T00:33:03.369Z,13.37
2018-12-14T00:35:32.836Z,14.33
2018-12-14T00:38:03.562Z,12.50
2018-12-14T00:40:32.805Z,12.17
2018-12-14T00:43:02.974Z,12.00
2018-12-14T00:45:32.583Z,11.63
2018-12-14T00:48:02.417Z,12.83
2018-12-14T00:50:31.696Z,12.23
2018-12-14T00:53:00.913Z,12.43
2018-12-14T00:55:33.045Z,11.87
2018-12-14T00:58:03.724Z,12.03
2018-12-14T01:00:36.581Z,11.77
2018-12-14T01:03:05.867Z,11.77
2018-12-14T01:05:36.072Z,11.40
2018-12-14T01:08:06.445Z,11.53
2018-12-14T01:10:37.700Z,12.10
2018-12-14T01:13:07.390Z,11.47
2018-12-14T01:15:36.628Z,12.20
2018-12-14T01:18:05.874Z,12.23
2018-12-14T01:20:35.692Z,12.47
2018-12-14T01:23:05.922Z,12.23
2018-12-14T01:25:35.524Z,11.30
2018-12-14T01:28:05.864Z,11.47
2018-12-14T01:30:35.546Z,12.40
2018-12-14T01:33:04.758Z,11.33
2018-12-14T01:35:34.375Z,11.37
2018-12-14T01:38:03.635Z,11.60
2018-12-14T01:40:32.884Z,11.83
2018-12-14T01:43:02.626Z,10.07
2018-12-14T01:45:31.862Z,10.63
2018-12-14T01:48:01.325Z,10.60
2018-12-14T01:50:31.501Z,10.20
2018-12-14T01:53:01.236Z,10.23
2018-12-14T01:55:30.912Z,10.53
2018-12-14T01:58:00.308Z,10.70
2018-12-14T02:00:29.975Z,9.90
2018-12-14T02:02:59.881Z,10.43
2018-12-14T02:05:29.093Z,11.33
2018-12-14T02:07:58.295Z,9.87
2018-12-14T02:10:27.956Z,9.77
2018-12-14T02:12:57.152Z,9.93
2018-12-14T02:15:26.382Z,9.53
2018-12-14T02:17:55.622Z,8.77
2018-12-14T02:20:24.880Z,10.00
2018-12-14T02:22:54.130Z,10.40
2018-12-14T02:25:23.720Z,9.87
2018-12-14T02:27:53.476Z,10.53
2018-12-14T02:30:47.559Z,9.70
2018-12-14T02:33:16.821Z,8.83
2018-12-14T02:35:46.082Z,9.97
2018-12-14T02:38:16.242Z,9.33
2018-12-14T02:40:45.541Z,9.47
2018-12-14T02:43:15.278Z,9.87
2018-12-14T02:45:44.514Z,9.87
2018-12-14T02:48:14.131Z,9.30
2018-12-14T02:50:44.599Z,9.77
2018-12-14T02:53:13.799Z,9.13
2018-12-14T02:55:43.054Z,9.60
2018-12-14T02:58:12.602Z,9.63
2018-12-14T03:00:42.389Z,9.07
2018-12-14T03:03:11.921Z,9.60
2018-12-14T03:05:41.397Z,9.03
2018-12-14T03:08:11.614Z,9.23
2018-12-14T03:10:41.492Z,7.93
2018-12-14T03:13:11.609Z,9.27
2018-12-14T03:15:40.878Z,8.97
2018-12-14T03:18:10.593Z,7.90
2018-12-14T03:20:40.531Z,8.87
2018-12-14T03:23:09.732Z,8.83
2018-12-14T03:25:40.023Z,8.77
2018-12-14T03:28:09.418Z,8.03
2018-12-14T03:30:38.661Z,7.73
2018-12-14T03:33:08.433Z,7.37
2018-12-14T03:35:39.324Z,7.77
2018-12-14T03:38:10.143Z,7.07
2018-12-14T03:40:39.769Z,8.27
2018-12-14T03:43:09.031Z,7.50
2018-12-14T03:45:38.299Z,7.20
2018-12-14T03:48:08.922Z,8.10
2018-12-14T03:50:38.130Z,8.50
2018-12-14T03:53:07.387Z,8.70
2018-12-14T03:55:36.652Z,8.73
2018-12-14T03:58:06.336Z,8.07
2018-12-14T04:00:35.657Z,7.50
2018-12-14T04:03:05.043Z,6.67
2018-12-14T04:05:34.605Z,7.53
2018-12-14T04:08:03.824Z,7.43
2018-12-14T04:10:33.056Z,7.47
2018-12-14T04:13:03.023Z,7.40
2018-12-14T04:15:32.433Z,7.53
2018-12-14T04:18:01.725Z,6.97
2018-12-14T04:20:30.937Z,7.20
2018-12-14T04:23:00.502Z,6.63
2018-12-14T04:25:29.733Z,7.37
2018-12-14T04:27:58.998Z,7.50
2018-12-14T04:30:28.236Z,6.93
2018-12-14T04:32:57.485Z,6.40
2018-12-14T04:35:26.767Z,6.87
2018-12-14T04:37:56.022Z,6.90
2018-12-14T04:40:25.452Z,6.73
2018-12-14T04:42:54.756Z,6.40
2018-12-14T04:45:24.427Z,7.77
2018-12-14T04:47:53.628Z,7.07
2018-12-14T04:50:22.834Z,8.23
2018-12-14T04:52:52.219Z,9.13
2018-12-14T04:55:21.460Z,10.57
2018-12-14T04:57:50.700Z,10.00
2018-12-14T05:00:20.452Z,10.37
2018-12-14T05:02:49.712Z,9.87
2018-12-14T05:05:19.817Z,11.87
2018-12-14T05:07:49.492Z,10.80
2018-12-14T05:10:18.706Z,10.90
2018-12-14T05:12:47.938Z,9.27
2018-12-14T05:15:17.157Z,9.33
2018-12-14T05:17:46.698Z,9.80
2018-12-14T05:20:16.933Z,9.20
2018-12-14T05:22:46.611Z,9.13
2018-12-14T05:25:16.253Z,9.27
2018-12-14T05:27:45.828Z,9.57
2018-12-14T05:30:15.512Z,9.97
2018-12-14T05:32:44.719Z,8.90
2018-12-14T05:35:14.349Z,9.23
2018-12-14T05:37:43.622Z,9.63
2018-12-14T05:40:12.937Z,9.07
2018-12-14T05:42:42.226Z,8.77
2018-12-14T05:45:11.495Z,9.20
2018-12-14T05:47:40.746Z,9.23
2018-12-14T05:53:32.883Z,7.67
2018-12-14T05:56:05.049Z,9.10
2018-12-14T05:58:34.692Z,9.67
2018-12-14T06:01:04.044Z,10.30
2018-12-14T06:09:49.029Z,9.23
2018-12-14T06:12:19.250Z,8.67
2018-12-14T06:14:48.780Z,12.00
2018-12-14T06:17:18.514Z,12.37
2018-12-14T06:19:47.787Z,11.37
2018-12-14T06:22:19.173Z,8.57
2018-12-14T06:24:49.086Z,12.50
2018-12-14T06:27:18.545Z,9.30
2018-12-14T06:29:48.400Z,10.20
2018-12-14T06:32:18.519Z,10.00
2018-12-14T06:34:47.772Z,9.67
2018-12-14T06:37:17.352Z,9.83
2018-12-14T06:39:47.626Z,9.37
2018-12-14T06:42:18.208Z,9.63
2018-12-14T06:44:49.653Z,9.17
2018-12-14T06:47:19.310Z,10.33
2018-12-14T06:49:48.598Z,10.27
2018-12-14T06:52:17.867Z,10.50
2018-12-14T06:54:47.124Z,11.87
2018-12-14T06:57:16.385Z,10.13
2018-12-14T06:59:46.392Z,9.47
2018-12-14T07:02:15.588Z,9.40
2018-12-14T07:04:44.925Z,9.20
2018-12-14T07:07:14.745Z,8.57
2018-12-14T07:09:44.039Z,8.33
2018-12-14T07:12:13.434Z,9.37
2018-12-14T07:14:42.782Z,8.60
2018-12-14T07:17:12.932Z,9.00
2018-12-14T07:19:42.144Z,10.23
2018-12-14T07:22:11.610Z,10.10
2018-12-14T07:24:41.076Z,10.07
2018-12-14T07:27:10.660Z,9.30
2018-12-14T07:29:39.901Z,10.20
2018-12-14T07:32:09.530Z,10.43
2018-12-14T07:34:39.866Z,9.73
2018-12-14T07:37:09.352Z,9.87
2018-12-14T07:39:38.568Z,9.07
2018-12-14T07:42:08.259Z,9.33
2018-12-14T07:44:38.171Z,9.93
2018-12-14T07:47:11.680Z,9.97
2018-12-14T07:49:40.089Z,10.17
2018-12-14T07:52:09.289Z,10.00
2018-12-14T07:54:38.879Z,9.17
2018-12-14T07:57:08.300Z,10.07
2018-12-14T07:59:37.893Z,10.47
2018-12-14T08:02:07.078Z,10.73
2018-12-14T08:04:36.328Z,10.57
2018-12-14T08:07:06.820Z,11.20
2018-12-14T08:09:36.040Z,10.00
2018-12-14T08:12:05.301Z,9.13
2018-12-14T08:14:34.925Z,9.13
2018-12-14T08:17:04.163Z,9.87
2018-12-14T08:19:33.446Z,10.23
2018-12-14T08:22:03.717Z,9.80
2018-12-14T08:24:32.988Z,9.37
2018-12-14T08:27:02.641Z,9.67
2018-12-14T08:29:32.350Z,9.70
2018-12-14T08:32:01.570Z,9.27
2018-12-14T08:34:31.202Z,10.40
2018-12-14T08:37:02.000Z,8.87
2018-12-14T08:39:33.325Z,9.63
2018-12-14T08:42:05.543Z,10.07
2018-12-14T08:44:35.702Z,9.00
2018-12-14T08:47:06.209Z,9.53
2018-12-14T08:49:35.456Z,9.87
2018-12-14T08:52:04.980Z,9.17
2018-12-14T08:54:34.227Z,9.33
2018-12-14T08:57:04.566Z,8.93
2018-12-14T08:59:34.169Z,9.43
2018-12-14T09:02:03.467Z,8.63
2018-12-14T09:04:37.381Z,11.27
2018-12-14T09:07:07.601Z,10.70
2018-12-14T09:09:38.116Z,11.93
2018-12-14T09:12:07.329Z,11.33
2018-12-14T09:14:36.940Z,10.63
2018-12-14T09:17:06.737Z,9.40
2018-12-14T09:19:36.853Z,9.97
2018-12-14T09:22:06.105Z,8.50
2018-12-14T09:24:36.638Z,9.67
2018-12-14T09:27:12.477Z,9.13
2018-12-14T09:29:42.883Z,10.07
2018-12-14T09:32:12.750Z,9.60
2018-12-14T09:34:42.914Z,10.47
2018-12-14T09:37:13.897Z,10.63
2018-12-14T09:39:43.152Z,11.00
2018-12-14T09:42:14.112Z,10.73
2018-12-14T09:44:43.375Z,10.30
2018-12-14T09:47:12.619Z,9.40
2018-12-14T09:49:42.233Z,9.80
2018-12-14T09:52:13.756Z,9.43
2018-12-14T09:54:43.693Z,9.90
2018-12-14T09:57:12.954Z,8.23
2018-12-14T09:59:43.345Z,8.40
2018-12-14T10:02:12.761Z,9.30
2018-12-14T10:04:42.007Z,8.90
2018-12-14T10:07:11.679Z,9.47
2018-12-14T10:09:41.273Z,8.50
2018-12-14T10:12:10.536Z,8.87
2018-12-14T10:14:40.591Z,8.77
2018-12-14T10:17:10.494Z,8.73
2018-12-14T10:19:40.625Z,8.83
2018-12-14T10:22:10.783Z,8.13
2018-12-14T10:24:41.102Z,8.20
2018-12-14T10:27:10.383Z,8.37
2018-12-14T10:29:39.877Z,8.63
2018-12-14T10:32:10.077Z,8.07
2018-12-14T10:34:53.885Z,7.87
2018-12-14T10:37:24.164Z,8.87
2018-12-14T10:39:54.160Z,8.30
2018-12-14T10:42:25.041Z,8.77
2018-12-14T10:44:54.453Z,9.00
2018-12-14T10:47:23.694Z,9.43
2018-12-14T10:49:53.353Z,9.77
2018-12-14T10:52:23.858Z,10.43
2018-12-14T10:54:54.612Z,9.63
2018-12-14T10:57:24.088Z,9.97
2018-12-14T10:59:53.890Z,9.63
2018-12-14T11:02:24.078Z,9.43
2018-12-14T11:04:53.847Z,9.80
2018-12-14T11:07:23.136Z,10.10
2018-12-14T11:09:52.376Z,10.80
2018-12-14T11:12:21.648Z,10.17
2018-12-14T11:14:51.175Z,11.00
2018-12-14T11:17:20.660Z,10.23
2018-12-14T11:19:49.972Z,10.20
2018-12-14T11:22:20.923Z,9.97
2018-12-14T11:24:50.157Z,9.50
2018-12-14T11:27:19.776Z,9.40
2018-12-14T11:29:49.452Z,9.67
2018-12-14T11:32:18.673Z,10.03
2018-12-14T11:34:47.890Z,10.37
2018-12-14T11:37:17.861Z,9.97
2018-12-14T11:39:47.985Z,9.83
2018-12-14T11:42:17.380Z,10.27
2018-12-14T11:44:46.801Z,9.37
2018-12-14T11:47:18.342Z,9.47
2018-12-14T11:49:49.229Z,10.40
2018-12-14T11:52:18.570Z,11.27
2018-12-14T11:54:48.451Z,11.03
2018-12-14T11:57:17.750Z,10.70
2018-12-14T11:59:47.591Z,9.73
2018-12-14T12:02:19.434Z,10.73
2018-12-14T12:04:50.797Z,9.93
2018-12-14T12:07:21.533Z,10.53
2018-12-14T12:09:51.205Z,11.13
2018-12-14T12:12:21.730Z,11.00
2018-12-14T12:14:51.848Z,10.17
2018-12-14T12:17:21.610Z,11.03
2018-12-14T12:19:51.285Z,10.70
2018-12-14T12:22:21.832Z,10.37
2018-12-14T12:24:51.910Z,11.37
2018-12-14T12:27:21.420Z,10.07
2018-12-14T12:29:50.805Z,10.30
2018-12-14T12:32:20.249Z,9.40
2018-12-14T12:34:49.900Z,9.30
2018-12-14T12:37:20.777Z,10.23
2018-12-14T12:42:49.046Z,9.83
2018-12-14T12:45:20.289Z,9.87
2018-12-14T12:47:50.136Z,11.67
2018-12-14T12:50:20.594Z,9.80
2018-12-14T12:52:50.721Z,10.60
2018-12-14T12:55:19.976Z,9.13
2018-12-14T12:57:53.511Z,10.50
2018-12-14T13:00:24.717Z,8.73
2018-12-14T13:02:54.345Z,10.00
2018-12-14T13:05:23.870Z,9.10
2018-12-14T13:07:54.038Z,10.70
2018-12-14T13:10:24.476Z,9.37
2018-12-14T13:12:55.461Z,9.97
2018-12-14T13:15:24.779Z,10.37
2018-12-14T13:17:54.399Z,9.77
2018-12-14T13:20:24.613Z,9.53
2018-12-14T13:22:55.280Z,8.87
2018-12-14T13:25:25.397Z,9.83
2018-12-14T13:27:56.020Z,9.70
2018-12-14T13:30:25.785Z,9.10
2018-12-14T13:32:57.298Z,9.57
2018-12-14T13:35:27.132Z,10.00
2018-12-14T13:37:58.528Z,10.87
2018-12-14T13:40:28.130Z,11.57
2018-12-14T13:42:57.430Z,11.43
2018-12-14T13:45:27.086Z,11.67
2018-12-14T13:47:56.927Z,11.30
2018-12-14T13:50:26.425Z,13.23
2018-12-14T13:52:57.430Z,12.93
2018-12-14T13:55:27.276Z,12.10
2018-12-14T13:57:57.638Z,12.50
2018-12-14T14:00:28.420Z,10.83
2018-12-14T14:02:59.000Z,10.23
2018-12-14T14:05:28.617Z,11.57
2018-12-14T14:07:58.044Z,10.63
2018-12-14T14:10:29.883Z,11.20
2018-12-14T14:13:00.802Z,11.43
2018-12-14T14:15:34.815Z,11.60
2018-12-14T14:18:05.654Z,11.53
2018-12-14T14:20:36.500Z,10.83
2018-12-14T14:23:06.021Z,11.40
2018-12-14T14:25:36.621Z,10.80
2018-12-14T14:28:07.180Z,10.53
2018-12-14T14:30:37.857Z,10.97
2018-12-14T14:33:09.313Z,13.13
2018-12-14T14:35:38.577Z,12.70
2018-12-14T14:38:09.670Z,12.30
2018-12-14T14:40:38.953Z,11.57
2018-12-14T14:43:08.891Z,11.33
2018-12-14T14:45:39.565Z,11.23
2018-12-14T14:48:09.183Z,11.97
2018-12-14T14:50:39.417Z,11.03
2018-12-14T14:53:09.691Z,12.27
2018-12-14T14:55:40.474Z,11.87
2018-12-14T14:58:12.447Z,13.13
2018-12-14T15:00:42.512Z,13.33
2018-12-14T15:03:13.397Z,11.70
2018-12-14T15:05:46.725Z,11.60
2018-12-14T15:08:16.480Z,11.30
2018-12-14T15:10:46.064Z,11.70
2018-12-14T15:13:18.091Z,11.37
2018-12-14T15:15:49.651Z,11.97
2018-12-14T15:18:19.573Z,12.17
2018-12-14T15:20:51.534Z,11.07
2018-12-14T15:23:23.997Z,11.97
2018-12-14T15:25:53.901Z,11.33
2018-12-14T15:28:23.513Z,12.13
2018-12-14T15:30:53.501Z,10.80
2018-12-14T15:33:23.250Z,10.60
2018-12-14T15:35:52.569Z,10.97
2018-12-14T15:38:23.226Z,11.70
2018-12-14T15:40:54.455Z,11.27
2018-12-14T15:43:23.724Z,12.03
2018-12-14T15:45:56.252Z,11.93
2018-12-14T15:48:27.109Z,12.83
2018-12-14T15:50:56.386Z,13.93
2018-12-14T15:53:29.766Z,13.60
2018-12-14T15:56:01.633Z,15.00
2018-12-14T15:58:33.526Z,13.83
2018-12-14T16:01:03.982Z,15.60
2018-12-14T16:03:38.825Z,13.43
2018-12-14T16:06:12.036Z,15.53
2018-12-14T16:08:43.062Z,14.97
2018-12-14T16:11:12.325Z,14.83
2018-12-14T16:13:45.240Z,14.67
2018-12-14T16:16:15.113Z,16.13
2018-12-14T16:18:48.577Z,17.43
2018-12-14T16:21:19.530Z,16.87
2018-12-14T16:23:57.435Z,18.33
2018-12-14T16:26:37.244Z,17.93
2018-12-14T16:29:09.935Z,18.90
2018-12-14T16:31:41.689Z,18.13
2018-12-14T16:34:15.728Z,15.53
2018-12-14T16:36:50.413Z,17.67
2018-12-14T16:39:21.103Z,16.77
2018-12-14T16:41:50.917Z,17.10
2018-12-14T16:44:21.054Z,16.90
2018-12-14T16:46:54.339Z,15.87
2018-12-14T16:49:26.118Z,17.40
2018-12-14T16:52:13.605Z,15.27
2018-12-14T16:54:49.574Z,14.73
2018-12-14T16:57:21.263Z,15.70
2018-12-14T16:59:57.225Z,15.17
2018-12-14T17:02:33.235Z,17.10
2018-12-14T17:05:11.640Z,16.27
2018-12-14T17:07:41.697Z,16.90
2018-12-14T17:10:19.245Z,16.60
2018-12-14T17:12:52.156Z,15.80
2018-12-14T17:15:25.006Z,15.17
2018-12-14T17:18:09.741Z,16.13
2018-12-14T17:24:13.250Z,15.40
2018-12-14T17:26:45.185Z,15.83
2018-12-14T17:29:18.180Z,16.40
2018-12-14T17:31:50.980Z,17.20
2018-12-14T17:34:23.910Z,18.50
2018-12-14T17:36:54.783Z,23.77
2018-12-14T17:39:32.834Z,22.87
2018-12-14T17:42:07.750Z,22.03
2018-12-14T17:44:38.728Z,17.00
2018-12-14T17:47:14.112Z,19.60
2018-12-14T17:49:52.959Z,18.47
2018-12-14T17:52:25.024Z,18.70
2018-12-14T17:54:54.503Z,18.00
2018-12-14T17:57:37.905Z,18.77
2018-12-14T18:00:12.923Z,18.80
2018-12-14T18:02:57.239Z,19.70
2018-12-14T18:08:29.932Z,19.03
2018-12-14T18:13:48.482Z,17.83
2018-12-14T18:16:38.344Z,17.50
2018-12-14T18:19:11.717Z,18.90
2018-12-14T18:21:44.836Z,18.43
2018-12-14T18:24:19.507Z,17.13
2018-12-14T18:29:33.593Z,17.07
2018-12-14T18:32:04.467Z,15.27
2018-12-14T18:34:35.637Z,16.90
2018-12-14T18:37:04.955Z,15.63
2018-12-14T18:39:38.075Z,15.67
2018-12-14T18:42:09.943Z,16.87
2018-12-14T18:44:40.510Z,16.17
2018-12-14T18:47:12.630Z,15.07
2018-12-14T18:49:49.656Z,15.30
2018-12-14T18:52:26.399Z,17.20
2018-12-14T18:54:57.505Z,19.73
2018-12-14T18:57:33.551Z,21.13
2018-12-14T19:00:08.750Z,20.53
2018-12-14T19:02:45.355Z,20.03
2018-12-14T19:05:18.451Z,20.57
2018-12-14T19:08:06.444Z,19.60
2018-12-14T19:10:37.128Z,18.30
2018-12-14T19:13:27.748Z,19.37
2018-12-14T19:15:59.877Z,19.47
2018-12-14T19:18:38.680Z,18.53
2018-12-14T19:21:13.093Z,15.57
2018-12-14T19:23:43.645Z,17.03
2018-12-14T19:26:13.146Z,16.50
2018-12-14T19:28:42.993Z,17.03
2018-12-14T19:31:13.743Z,16.73
2018-12-14T19:33:43.919Z,18.27
2018-12-14T19:36:14.362Z,20.07
2018-12-14T19:38:44.125Z,18.10
2018-12-14T19:41:13.537Z,18.53
2018-12-14T19:43:44.385Z,17.43
2018-12-14T19:46:14.647Z,17.33
2018-12-14T19:48:46.293Z,17.53
2018-12-14T19:51:16.956Z,19.07
2018-12-14T19:54:24.148Z,18.50
2018-12-14T19:56:58.246Z,17.80
2018-12-14T19:59:30.963Z,18.23
2018-12-14T20:02:03.853Z,17.33
2018-12-14T20:04:35.294Z,17.70
2018-12-14T20:07:07.262Z,17.47
2018-12-14T20:09:51.544Z,16.00
2018-12-14T20:12:23.648Z,15.37
2018-12-14T20:14:58.552Z,14.97
2018-12-14T20:17:28.610Z,15.50
2018-12-14T20:22:59.198Z,14.20
2018-12-14T20:25:29.097Z,15.73
2018-12-14T20:28:03.671Z,14.97
2018-12-14T20:30:33.604Z,14.63
2018-12-14T20:33:02.945Z,15.37
2018-12-14T20:35:33.464Z,15.40
2018-12-14T20:38:03.937Z,15.37
2018-12-14T20:40:37.121Z,15.00
2018-12-14T20:43:10.150Z,14.67
2018-12-14T20:45:42.108Z,15.03
2018-12-14T20:48:11.746Z,14.83
2018-12-14T20:50:41.352Z,16.93
2018-12-14T20:53:13.709Z,17.07
2018-12-14T20:55:49.668Z,15.70
2018-12-14T20:58:22.754Z,15.10
2018-12-14T21:00:57.724Z,15.10
2018-12-14T21:03:28.944Z,14.77
2018-12-14T21:06:00.185Z,14.10
2018-12-14T21:08:52.008Z,14.50
2018-12-14T21:11:21.559Z,13.83
2018-12-14T21:13:51.895Z,14.27
2018-12-14T21:16:25.949Z,13.50
2018-12-14T21:18:54.516Z,13.57
2018-12-14T21:21:23.726Z,14.83
2018-12-14T21:23:53.951Z,14.23
2018-12-14T21:26:24.873Z,14.27
2018-12-14T21:28:56.749Z,15.40
2018-12-14T21:31:29.362Z,14.97
2018-12-14T21:34:02.352Z,14.77
2018-12-14T21:36:33.654Z,16.30
2018-12-14T21:39:04.760Z,15.70
2018-12-14T21:41:37.496Z,15.47
2018-12-14T21:44:08.045Z,15.97
2018-12-14T21:46:37.881Z,15.80
2018-12-14T21:49:08.310Z,14.33
2018-12-14T21:51:38.360Z,14.37
2018-12-14T21:54:09.948Z,15.40
2018-12-14T21:56:40.421Z,15.70
2018-12-14T21:59:10.398Z,15.70
2018-12-14T22:01:39.965Z,14.93
2018-12-14T22:04:09.598Z,14.80
2018-12-14T22:06:39.019Z,14.90
2018-12-14T22:09:12.449Z,14.60
2018-12-14T22:11:42.460Z,15.47
2018-12-14T22:14:12.249Z,14.60
2018-12-14T22:16:46.102Z,14.90
2018-12-14T22:19:16.211Z,14.67
2018-12-14T22:21:46.092Z,15.07
2018-12-14T22:24:15.588Z,15.47
2018-12-14T22:26:44.845Z,14.30
2018-12-14T22:29:14.084Z,15.20
2018-12-14T22:31:43.668Z,16.33
2018-12-14T22:34:14.316Z,16.23
2018-12-14T22:36:44.714Z,15.77
2018-12-14T22:39:15.589Z,16.70
2018-12-14T22:41:45.809Z,16.13
2018-12-14T22:44:21.248Z,15.67
2018-12-14T22:46:47.485Z,16.10
2018-12-14T22:49:18.217Z,16.90
2018-12-14T22:51:47.756Z,17.20
2018-12-14T22:54:18.113Z,16.13
2018-12-14T22:56:47.561Z,14.60
2018-12-14T22:59:20.001Z,14.97
2018-12-14T23:01:50.325Z,14.47
2018-12-14T23:04:21.020Z,14.67
2018-12-14T23:06:52.078Z,14.50
2018-12-14T23:09:21.645Z,14.37
2018-12-14T23:11:55.030Z,14.50
2018-12-14T23:14:25.475Z,15.03
2018-12-14T23:16:54.759Z,13.90
2018-12-14T23:19:24.034Z,15.30
2018-12-14T23:21:53.746Z,15.17
2018-12-14T23:24:23.027Z,16.23
2018-12-14T23:26:53.441Z,14.57
2018-12-14T23:29:23.222Z,15.23
2018-12-14T23:31:52.722Z,14.83
2018-12-14T23:34:28.964Z,14.53
2018-12-14T23:36:58.543Z,13.27
2018-12-14T23:39:27.868Z,13.07
2018-12-14T23:41:57.452Z,15.70
2018-12-14T23:44:27.269Z,15.43
2018-12-14T23:46:58.864Z,12.60
2018-12-14T23:49:30.110Z,12.57
2018-12-14T23:51:59.642Z,13.17
2018-12-14T23:54:29.773Z,13.23
2018-12-14T23:56:59.008Z,12.57
2018-12-14T23:59:29.157Z,13.97
